createdAt,value
2022-12-26T00:01:03.037Z,66.38
2022-12-26T00:06:06.470Z,66.12
2022-12-26T00:11:09.430Z,65.88
2022-12-26T00:16:17.015Z,65.50
2022-12-26T00:21:20.900Z,65.70
2022-12-26T00:26:26.352Z,65.45
2022-12-26T00:31:33.074Z,65.24
2022-12-26T00:36:35.899Z,65.29
2022-12-26T00:41:38.700Z,65.19
2022-12-26T00:46:42.890Z,65.25
2022-12-26T00:51:46.938Z,65.33
2022-12-26T00:56:49.972Z,65.32
2022-12-26T01:01:54.348Z,65.17
2022-12-26T01:06:57.222Z,65.13
2022-12-26T01:11:59.935Z,65.31
2022-12-26T01:17:04.456Z,65.35
2022-12-26T01:22:07.243Z,65.25
2022-12-26T01:27:10.051Z,65.35
2022-12-26T01:32:14.581Z,65.18
2022-12-26T01:37:17.873Z,65.24
2022-12-26T01:42:23.014Z,65.23
2022-12-26T01:47:38.586Z,65.29
2022-12-26T01:52:47.026Z,65.37
2022-12-26T01:57:55.966Z,65.39
2022-12-26T02:03:18.196Z,65.42
2022-12-26T02:08:25.425Z,65.47
2022-12-26T02:13:30.184Z,65.43
2022-12-26T02:18:34.604Z,65.60
2022-12-26T02:24:20.170Z,65.51
2022-12-26T02:29:48.382Z,65.53
2022-12-26T02:35:02.033Z,63.71
2022-12-26T02:40:24.173Z,63.06
2022-12-26T02:45:52.926Z,62.82
2022-12-26T02:51:24.104Z,62.65
2022-12-26T02:56:50.393Z,62.59
2022-12-26T03:02:16.271Z,62.16
2022-12-26T03:07:43.584Z,62.34
2022-12-26T03:13:09.358Z,62.09
2022-12-26T03:18:13.199Z,61.75
2022-12-26T03:23:22.399Z,61.99
2022-12-26T03:28:26.277Z,61.63
2022-12-26T03:33:49.313Z,61.70
2022-12-26T03:39:07.573Z,61.58
2022-12-26T03:44:39.559Z,61.40
2022-12-26T03:50:04.750Z,61.64
2022-12-26T03:55:34.758Z,61.35
2022-12-26T04:00:58.926Z,61.33
2022-12-26T04:06:22.534Z,61.23
2022-12-26T04:11:45.266Z,61.52
2022-12-26T04:17:10.813Z,61.31
2022-12-26T04:22:39.531Z,61.15
2022-12-26T04:28:01.514Z,61.47
2022-12-26T04:33:29.409Z,61.39
2022-12-26T04:38:54.527Z,61.47
2022-12-26T04:44:09.262Z,61.78
2022-12-26T04:49:40.875Z,62.13
2022-12-26T04:54:44.467Z,62.27
2022-12-26T04:59:48.651Z,61.98
2022-12-26T05:05:08.849Z,62.67
2022-12-26T05:10:17.716Z,62.48
2022-12-26T05:15:22.256Z,62.81
2022-12-26T05:20:42.500Z,63.10
2022-12-26T05:26:04.880Z,63.67
2022-12-26T05:31:09.881Z,64.20
2022-12-26T05:36:13.833Z,64.71
2022-12-26T05:41:17.035Z,65.15
2022-12-26T05:46:21.768Z,65.48
2022-12-26T05:51:24.592Z,65.92
2022-12-26T05:56:27.384Z,66.30
2022-12-26T06:01:31.802Z,66.48
2022-12-26T06:06:34.619Z,66.93
2022-12-26T06:11:37.372Z,67.08
2022-12-26T06:16:42.099Z,67.41
2022-12-26T06:21:45.014Z,67.63
2022-12-26T06:26:47.886Z,67.89
2022-12-26T06:31:52.097Z,68.27
2022-12-26T06:36:56.001Z,68.45
2022-12-26T06:41:58.833Z,68.78
2022-12-26T06:47:04.097Z,68.90
2022-12-26T06:52:07.294Z,69.11
2022-12-26T06:57:10.287Z,69.32
2022-12-26T07:02:14.738Z,69.30
2022-12-26T07:07:17.926Z,69.56
2022-12-26T07:12:21.938Z,69.53
2022-12-26T07:17:26.054Z,69.71
2022-12-26T07:22:29.576Z,69.91
2022-12-26T07:27:32.439Z,69.99
2022-12-26T07:32:36.751Z,70.11
2022-12-26T07:37:39.495Z,70.49
2022-12-26T07:42:42.404Z,70.60
2022-12-26T07:47:46.614Z,70.77
2022-12-26T07:52:49.535Z,71.07
2022-12-26T07:57:53.439Z,70.91
2022-12-26T08:03:04.669Z,71.19
2022-12-26T08:08:09.821Z,70.96
2022-12-26T08:13:12.669Z,70.53
2022-12-26T08:18:16.852Z,69.97
2022-12-26T08:23:19.998Z,69.36
2022-12-26T08:28:22.798Z,69.03
2022-12-26T08:33:27.231Z,68.35
2022-12-26T08:38:31.895Z,68.01
2022-12-26T08:44:09.952Z,67.72
2022-12-26T08:48:58.985Z,67.92
2022-12-26T08:54:01.735Z,67.55
2022-12-26T08:59:04.608Z,67.47
2022-12-26T09:04:09.870Z,67.93
2022-12-26T09:09:13.898Z,67.80
2022-12-26T09:14:16.631Z,68.05
2022-12-26T09:19:22.066Z,68.19
2022-12-26T09:24:24.855Z,68.75
2022-12-26T09:29:27.720Z,69.13
2022-12-26T09:34:33.284Z,69.02
2022-12-26T09:39:36.597Z,69.48
2022-12-26T09:44:49.464Z,69.58
2022-12-26T09:49:58.765Z,69.58
2022-12-26T09:55:05.853Z,69.34
2022-12-26T10:00:14.378Z,68.57
2022-12-26T10:05:18.605Z,67.98
2022-12-26T10:10:29.739Z,68.29
2022-12-26T10:15:42.060Z,68.61
2022-12-26T10:21:05.121Z,68.79
2022-12-26T10:26:13.732Z,69.37
2022-12-26T10:31:22.286Z,69.71
2022-12-26T10:36:33.618Z,69.55
2022-12-26T10:41:42.953Z,69.53
2022-12-26T10:47:12.610Z,69.08
2022-12-26T10:52:19.100Z,68.87
2022-12-26T10:57:23.844Z,68.53
2022-12-26T11:02:29.396Z,68.22
2022-12-26T11:07:36.240Z,67.96
2022-12-26T11:12:42.824Z,67.82
2022-12-26T11:17:48.626Z,67.78
2022-12-26T11:22:53.231Z,67.60
2022-12-26T11:27:58.835Z,67.50
2022-12-26T11:33:15.144Z,67.18
2022-12-26T11:38:42.556Z,67.10
2022-12-26T11:43:48.141Z,67.23
2022-12-26T11:48:52.373Z,67.27
2022-12-26T11:54:14.301Z,67.66
2022-12-26T11:59:20.327Z,68.35
2022-12-26T12:04:23.278Z,68.60
2022-12-26T12:09:38.087Z,70.04
2022-12-26T12:14:57.963Z,71.76
2022-12-26T12:20:16.235Z,72.91
2022-12-26T12:25:33.068Z,73.41
2022-12-26T12:30:43.949Z,66.57
2022-12-26T12:35:59.168Z,68.84
2022-12-26T12:41:15.885Z,69.13
2022-12-26T12:46:30.020Z,69.70
2022-12-26T12:51:41.406Z,70.70
2022-12-26T12:56:52.976Z,68.42
2022-12-26T13:02:07.026Z,67.54
2022-12-26T13:07:19.907Z,67.07
2022-12-26T13:12:27.375Z,66.55
2022-12-26T13:17:38.785Z,66.87
2022-12-26T13:23:02.013Z,66.92
2022-12-26T13:28:15.284Z,66.64
2022-12-26T13:33:18.764Z,66.99
2022-12-26T13:38:22.729Z,67.09
2022-12-26T13:43:44.797Z,67.09
2022-12-26T13:48:59.593Z,66.98
2022-12-26T13:54:12.165Z,67.12
2022-12-26T13:59:23.219Z,67.26
2022-12-26T14:04:42.212Z,67.38
2022-12-26T14:09:59.576Z,67.37
2022-12-26T14:15:16.781Z,67.49
2022-12-26T14:20:38.834Z,67.64
2022-12-26T14:25:52.739Z,67.03
2022-12-26T14:31:12.004Z,66.59
2022-12-26T14:36:26.404Z,66.46
2022-12-26T14:41:46.888Z,66.54
2022-12-26T14:47:04.456Z,66.46
2022-12-26T14:52:37.491Z,66.15
2022-12-26T14:57:50.980Z,65.66
2022-12-26T15:03:21.087Z,64.94
2022-12-26T15:08:42.829Z,64.23
2022-12-26T15:14:05.758Z,63.86
2022-12-26T15:19:58.333Z,63.35
2022-12-26T15:25:33.031Z,63.39
2022-12-26T15:30:56.675Z,63.13
2022-12-26T15:36:07.960Z,63.11
2022-12-26T15:41:14.967Z,62.90
2022-12-26T15:46:23.581Z,62.57
2022-12-26T15:51:38.455Z,62.42
2022-12-26T15:56:53.313Z,62.05
2022-12-26T16:01:58.404Z,61.98
2022-12-26T16:07:09.605Z,61.88
2022-12-26T16:12:22.836Z,61.61
2022-12-26T16:17:25.953Z,61.49
2022-12-26T16:22:46.503Z,61.29
2022-12-26T16:27:52.131Z,61.29
2022-12-26T16:32:56.300Z,61.14
2022-12-26T16:38:03.563Z,60.96
2022-12-26T16:43:10.123Z,60.96
2022-12-26T16:48:16.409Z,60.74
2022-12-26T16:53:22.876Z,60.76
2022-12-26T16:58:29.632Z,60.75
2022-12-26T17:03:45.187Z,60.77
2022-12-26T17:08:52.934Z,60.61
2022-12-26T17:13:57.301Z,60.58
2022-12-26T17:19:12.273Z,61.30
2022-12-26T17:24:26.359Z,61.22
2022-12-26T17:29:57.191Z,61.64
2022-12-26T17:35:12.418Z,62.04
2022-12-26T17:40:28.872Z,61.63
2022-12-26T17:45:31.986Z,60.94
2022-12-26T17:50:37.359Z,60.70
2022-12-26T17:55:42.621Z,60.70
2022-12-26T18:00:46.321Z,60.35
2022-12-26T18:05:49.793Z,60.67
2022-12-26T18:10:54.443Z,60.50
2022-12-26T18:15:57.788Z,60.36
2022-12-26T18:21:01.268Z,60.16
2022-12-26T18:26:09.367Z,60.04
2022-12-26T18:31:16.662Z,59.94
2022-12-26T18:36:20.175Z,59.44
2022-12-26T18:41:24.449Z,59.54
2022-12-26T18:46:29.675Z,58.59
2022-12-26T18:51:32.424Z,58.83
2022-12-26T18:56:36.561Z,58.33
2022-12-26T19:01:39.602Z,58.61
2022-12-26T19:06:42.912Z,58.84
2022-12-26T19:11:47.342Z,58.73
2022-12-26T19:16:50.377Z,59.09
2022-12-26T19:21:53.198Z,59.42
2022-12-26T19:26:57.394Z,59.55
2022-12-26T19:32:00.383Z,59.26
2022-12-26T19:37:03.463Z,60.11
2022-12-26T19:42:07.761Z,59.55
2022-12-26T19:47:11.172Z,59.55
2022-12-26T19:52:15.151Z,59.53
2022-12-26T19:57:19.388Z,59.61
2022-12-26T20:02:22.413Z,59.92
2022-12-26T20:07:25.259Z,59.87
2022-12-26T20:12:29.385Z,59.59
2022-12-26T20:17:32.191Z,59.58
2022-12-26T20:22:34.990Z,59.56
2022-12-26T20:27:40.648Z,59.45
2022-12-26T20:32:46.695Z,59.21
2022-12-26T20:37:49.687Z,59.03
2022-12-26T20:42:53.921Z,59.08
2022-12-26T20:47:56.723Z,59.01
2022-12-26T20:52:59.449Z,59.04
2022-12-26T20:58:03.769Z,58.48
2022-12-26T21:03:06.670Z,58.61
2022-12-26T21:08:09.848Z,58.96
2022-12-26T21:13:14.394Z,58.62
2022-12-26T21:18:17.307Z,58.86
2022-12-26T21:23:20.060Z,58.83
2022-12-26T21:28:24.278Z,58.41
2022-12-26T21:33:27.386Z,58.36
2022-12-26T21:38:31.393Z,57.84
2022-12-26T21:43:35.822Z,57.86
2022-12-26T21:48:39.663Z,57.89
2022-12-26T21:53:42.704Z,58.10
2022-12-26T21:59:04.360Z,58.10
2022-12-26T22:04:23.599Z,58.17
2022-12-26T22:09:26.534Z,58.33
2022-12-26T22:14:31.033Z,58.30
2022-12-26T22:19:33.809Z,58.39
2022-12-26T22:24:36.556Z,58.71
2022-12-26T22:29:40.722Z,58.87
2022-12-26T22:34:43.501Z,58.92
2022-12-26T22:39:46.269Z,58.78
2022-12-26T22:44:50.626Z,58.85
2022-12-26T22:49:53.459Z,58.93
2022-12-26T22:54:56.179Z,59.01
2022-12-26T23:00:09.705Z,58.63
2022-12-26T23:05:14.560Z,58.92
2022-12-26T23:10:21.920Z,58.90
2022-12-26T23:15:28.260Z,58.96
2022-12-26T23:20:53.369Z,58.58
2022-12-26T23:25:59.324Z,58.68
2022-12-26T23:31:04.387Z,58.76
2022-12-26T23:36:08.083Z,58.85
2022-12-26T23:41:10.840Z,58.84
2022-12-26T23:46:14.976Z,59.04
2022-12-26T23:51:18.017Z,58.85
2022-12-26T23:56:20.848Z,58.80
